createdAt,value
2024-03-08T00:00:17.392Z,99.90
2024-03-08T00:02:47.545Z,99.90
2024-03-08T00:05:16.103Z,99.90
2024-03-08T00:07:44.753Z,99.90
2024-03-08T00:10:14.965Z,99.90
2024-03-08T00:12:45.746Z,99.90
2024-03-08T00:15:16.763Z,99.90
2024-03-08T00:17:46.370Z,99.90
2024-03-08T00:20:14.867Z,99.90
2024-03-08T00:22:42.415Z,99.90
2024-03-08T00:25:16.096Z,99.90
2024-03-08T00:27:43.341Z,99.90
2024-03-08T00:30:12.279Z,99.90
2024-03-08T00:32:39.537Z,99.90
2024-03-08T00:35:10.062Z,99.90
2024-03-08T00:37:37.994Z,99.90
2024-03-08T00:40:10.374Z,99.90
2024-03-08T00:42:39.434Z,99.90
2024-03-08T00:45:07.145Z,99.90
2024-03-08T00:47:34.338Z,99.90
2024-03-08T00:50:05.067Z,99.90
2024-03-08T00:52:32.137Z,99.90
2024-03-08T00:54:59.138Z,99.90
2024-03-08T00:57:26.082Z,99.90
2024-03-08T00:59:54.042Z,99.90
2024-03-08T01:02:22.338Z,99.90
2024-03-08T01:04:49.390Z,99.90
2024-03-08T01:07:16.460Z,99.90
2024-03-08T01:09:43.538Z,99.90
2024-03-08T01:12:11.848Z,99.90
2024-03-08T01:14:38.982Z,99.90
2024-03-08T01:17:06.240Z,99.90
2024-03-08T01:19:34.412Z,99.90
2024-03-08T01:22:01.517Z,99.90
2024-03-08T01:24:28.469Z,99.90
2024-03-08T01:26:55.520Z,99.90
2024-03-08T01:29:22.521Z,99.90
2024-03-08T01:31:49.436Z,99.90
2024-03-08T01:34:16.410Z,99.90
2024-03-08T01:36:43.504Z,99.90
2024-03-08T01:39:10.741Z,99.90
2024-03-08T01:41:38.022Z,99.90
2024-03-08T01:44:05.193Z,99.90
2024-03-08T01:46:32.802Z,99.90
2024-03-08T01:49:02.062Z,99.90
2024-03-08T01:51:30.659Z,99.90
2024-03-08T01:54:01.294Z,99.90
2024-03-08T01:56:28.347Z,99.90
2024-03-08T01:58:56.202Z,99.90
2024-03-08T02:01:23.235Z,99.90
2024-03-08T02:03:50.933Z,99.90
2024-03-08T02:06:18.546Z,99.90
2024-03-08T02:08:47.684Z,99.90
2024-03-08T02:11:16.639Z,99.90
2024-03-08T02:13:44.157Z,99.90
2024-03-08T02:16:11.307Z,99.90
2024-03-08T02:18:40.686Z,99.90
2024-03-08T02:21:09.927Z,99.90
2024-03-08T02:23:38.698Z,99.90
2024-03-08T02:26:06.057Z,99.90
2024-03-08T02:28:33.773Z,99.90
2024-03-08T02:31:01.084Z,99.90
2024-03-08T02:33:30.096Z,99.90
2024-03-08T02:35:57.615Z,99.90
2024-03-08T02:38:26.096Z,99.90
2024-03-08T02:40:54.989Z,99.90
2024-03-08T02:43:23.500Z,99.90
2024-03-08T02:45:51.069Z,99.90
2024-03-08T02:48:18.521Z,99.90
2024-03-08T02:50:46.927Z,99.90
2024-03-08T02:53:15.410Z,99.90
2024-03-08T02:55:43.377Z,99.90
2024-03-08T02:58:11.926Z,99.90
2024-03-08T03:00:43.174Z,99.90
2024-03-08T03:03:10.442Z,99.90
2024-03-08T03:05:37.817Z,99.90
2024-03-08T03:08:10.418Z,99.90
2024-03-08T03:10:38.118Z,99.90
2024-03-08T03:13:09.685Z,99.90
2024-03-08T03:15:37.874Z,99.90
2024-03-08T03:18:09.244Z,99.90
2024-03-08T03:20:41.703Z,99.90
2024-03-08T03:23:10.399Z,99.90
2024-03-08T03:25:39.678Z,99.90
2024-03-08T03:28:09.033Z,99.90
2024-03-08T03:30:36.193Z,99.90
2024-03-08T03:33:08.227Z,99.90
2024-03-08T03:35:37.831Z,99.90
2024-03-08T03:38:10.137Z,99.90
2024-03-08T03:40:40.980Z,99.90
2024-03-08T03:43:08.669Z,99.90
2024-03-08T03:45:36.406Z,99.90
2024-03-08T03:48:08.021Z,99.90
2024-03-08T03:50:36.647Z,99.90
2024-03-08T03:53:05.553Z,99.90
2024-03-08T03:55:32.777Z,99.90
2024-03-08T03:58:02.341Z,99.90
2024-03-08T04:00:29.471Z,99.90
2024-03-08T04:03:00.044Z,99.90
2024-03-08T04:05:27.273Z,99.90
2024-03-08T04:07:54.229Z,99.90
2024-03-08T04:10:21.293Z,99.90
2024-03-08T04:12:48.445Z,99.90
2024-03-08T04:15:16.502Z,99.90
2024-03-08T04:17:43.897Z,99.90
2024-03-08T04:20:11.924Z,99.90
2024-03-08T04:22:40.367Z,99.90
2024-03-08T04:25:08.540Z,99.90
2024-03-08T04:27:35.875Z,99.90
2024-03-08T04:30:04.447Z,99.90
2024-03-08T04:32:33.684Z,99.90
2024-03-08T04:35:05.146Z,99.90
2024-03-08T04:37:32.422Z,99.90
2024-03-08T04:40:00.131Z,99.90
2024-03-08T04:42:31.481Z,99.90
2024-03-08T04:44:59.131Z,99.90
2024-03-08T04:47:26.625Z,99.90
2024-03-08T04:49:54.178Z,99.90
2024-03-08T04:52:21.254Z,99.90
2024-03-08T04:54:48.205Z,99.90
2024-03-08T04:57:15.359Z,99.90
2024-03-08T04:59:42.574Z,99.90
2024-03-08T05:02:09.658Z,99.90
2024-03-08T05:04:37.053Z,99.90
2024-03-08T05:07:05.097Z,99.90
2024-03-08T05:09:33.143Z,99.90
2024-03-08T05:12:00.630Z,99.90
2024-03-08T05:14:28.004Z,99.90
2024-03-08T05:16:55.194Z,99.90
2024-03-08T05:19:22.599Z,99.90
2024-03-08T05:21:51.320Z,99.90
2024-03-08T05:24:19.456Z,99.90
2024-03-08T05:26:47.989Z,99.90
2024-03-08T05:29:15.777Z,99.90
2024-03-08T05:31:51.791Z,99.90
2024-03-08T05:34:20.473Z,99.90
2024-03-08T05:36:47.935Z,99.90
2024-03-08T05:39:15.330Z,99.90
2024-03-08T05:41:43.407Z,99.90
2024-03-08T05:44:11.344Z,99.90
2024-03-08T05:46:38.892Z,99.90
2024-03-08T05:49:07.392Z,99.90
2024-03-08T05:51:35.756Z,99.90
2024-03-08T05:54:10.017Z,99.90
2024-03-08T05:56:38.616Z,99.90
2024-03-08T05:59:05.810Z,99.90
2024-03-08T06:01:32.734Z,99.90
2024-03-08T06:04:00.088Z,99.90
2024-03-08T06:06:27.521Z,99.90
2024-03-08T06:08:54.891Z,99.90
2024-03-08T06:11:22.256Z,99.90
2024-03-08T06:13:50.658Z,99.90
2024-03-08T06:16:17.853Z,99.90
2024-03-08T06:18:45.105Z,99.90
2024-03-08T06:21:14.918Z,99.90
2024-03-08T06:23:41.941Z,99.90
2024-03-08T06:26:09.373Z,99.90
2024-03-08T06:28:36.335Z,99.90
2024-03-08T06:31:03.808Z,99.90
2024-03-08T06:33:33.748Z,99.90
2024-03-08T06:36:00.955Z,99.90
2024-03-08T06:38:28.244Z,99.90
2024-03-08T06:40:55.992Z,99.90
2024-03-08T06:43:23.237Z,99.90
2024-03-08T06:45:50.461Z,99.90
2024-03-08T06:48:21.022Z,99.90
2024-03-08T06:50:49.115Z,99.90
2024-03-08T06:53:18.282Z,99.90
2024-03-08T06:55:46.787Z,99.90
2024-03-08T06:58:13.759Z,99.90
2024-03-08T07:00:40.747Z,99.90
2024-03-08T07:03:13.638Z,99.90
2024-03-08T07:05:41.535Z,99.90
2024-03-08T07:08:08.908Z,99.90
2024-03-08T07:10:36.627Z,99.90
2024-03-08T07:13:03.690Z,99.90
2024-03-08T07:15:30.723Z,99.90
2024-03-08T07:17:57.890Z,99.90
2024-03-08T07:20:24.850Z,99.90
2024-03-08T07:22:55.033Z,99.90
2024-03-08T07:25:23.149Z,99.90
2024-03-08T07:27:55.173Z,99.90
2024-03-08T07:30:44.290Z,99.90
2024-03-08T07:33:15.964Z,99.90
2024-03-08T07:35:43.699Z,99.90
2024-03-08T07:38:12.991Z,99.90
2024-03-08T07:40:47.725Z,99.90
2024-03-08T07:43:14.986Z,99.90
2024-03-08T07:45:42.041Z,99.90
2024-03-08T07:48:11.272Z,99.90
2024-03-08T07:50:40.725Z,99.90
2024-03-08T07:53:10.597Z,99.90
2024-03-08T07:55:38.800Z,99.90
2024-03-08T07:58:05.900Z,99.90
2024-03-08T08:00:33.659Z,99.80
2024-03-08T08:03:00.697Z,99.90
2024-03-08T08:05:28.155Z,99.90
2024-03-08T08:07:57.488Z,99.90
2024-03-08T08:10:26.739Z,99.90
2024-03-08T08:12:54.211Z,99.90
2024-03-08T08:15:21.677Z,99.90
2024-03-08T08:17:51.179Z,99.90
2024-03-08T08:20:19.669Z,99.90
2024-03-08T08:22:47.196Z,99.90
2024-03-08T08:25:14.855Z,99.90
2024-03-08T08:27:43.800Z,99.90
2024-03-08T08:30:12.514Z,99.90
2024-03-08T08:32:45.903Z,99.90
2024-03-08T08:35:14.058Z,99.90
2024-03-08T08:37:41.497Z,99.90
2024-03-08T08:40:16.004Z,99.90
2024-03-08T08:42:43.895Z,99.90
2024-03-08T08:45:16.098Z,99.90
2024-03-08T08:47:48.312Z,99.90
2024-03-08T08:50:15.532Z,99.90
2024-03-08T08:52:44.981Z,99.90
2024-03-08T08:55:15.950Z,99.90
2024-03-08T08:57:43.873Z,99.90
2024-03-08T09:00:16.564Z,99.90
2024-03-08T09:02:44.549Z,99.90
2024-03-08T09:05:12.634Z,99.90
2024-03-08T09:07:39.964Z,99.90
2024-03-08T09:10:17.097Z,99.90
2024-03-08T09:12:46.066Z,99.90
2024-03-08T09:15:13.686Z,99.90
2024-03-08T09:17:42.213Z,99.90
2024-03-08T09:20:12.088Z,99.90
2024-03-08T09:22:39.410Z,99.90
2024-03-08T09:25:06.908Z,99.90
2024-03-08T09:27:37.758Z,99.90
2024-03-08T09:30:09.000Z,99.90
2024-03-08T09:32:36.386Z,99.90
2024-03-08T09:35:04.002Z,99.90
2024-03-08T09:37:32.071Z,99.90
2024-03-08T09:40:00.288Z,99.80
2024-03-08T09:42:27.807Z,99.90
2024-03-08T09:44:55.066Z,99.90
2024-03-08T09:47:26.389Z,99.90
2024-03-08T09:49:54.746Z,99.90
2024-03-08T09:52:22.056Z,99.90
2024-03-08T09:54:50.718Z,99.90
2024-03-08T09:57:19.747Z,99.90
2024-03-08T09:59:49.247Z,99.80
2024-03-08T10:02:17.559Z,99.20
2024-03-08T10:04:47.778Z,99.40
2024-03-08T10:07:14.956Z,98.90
2024-03-08T10:09:48.284Z,99.00
2024-03-08T10:12:20.784Z,99.10
2024-03-08T10:14:47.940Z,99.60
2024-03-08T10:17:14.924Z,98.80
2024-03-08T10:19:52.871Z,98.60
2024-03-08T10:22:20.704Z,98.20
2024-03-08T10:24:51.469Z,97.80
2024-03-08T10:27:19.018Z,98.00
2024-03-08T10:29:51.645Z,97.60
2024-03-08T10:32:18.745Z,97.80
2024-03-08T10:34:46.412Z,97.60
2024-03-08T10:37:23.581Z,97.10
2024-03-08T10:40:12.159Z,97.30
2024-03-08T10:42:48.371Z,97.30
2024-03-08T10:45:37.746Z,96.70
2024-03-08T10:48:39.581Z,97.10
2024-03-08T10:51:08.648Z,97.70
2024-03-08T10:53:38.083Z,97.30
2024-03-08T10:56:06.051Z,97.40
2024-03-08T10:58:33.219Z,96.90
2024-03-08T11:01:00.337Z,96.90
2024-03-08T11:03:43.629Z,96.50
2024-03-08T11:06:21.881Z,97.00
2024-03-08T11:08:51.571Z,96.30
2024-03-08T11:11:35.694Z,97.10
2024-03-08T11:14:05.456Z,96.10
2024-03-08T11:16:32.770Z,96.10
2024-03-08T11:19:05.696Z,96.10
2024-03-08T11:21:40.659Z,96.30
2024-03-08T11:24:09.284Z,96.10
2024-03-08T11:26:36.919Z,96.50
2024-03-08T11:29:28.690Z,96.80
2024-03-08T11:32:19.222Z,96.70
2024-03-08T11:34:51.910Z,97.00
2024-03-08T11:37:22.200Z,97.10
2024-03-08T11:40:00.185Z,97.00
2024-03-08T11:42:27.433Z,97.30
2024-03-08T11:44:55.381Z,97.50
2024-03-08T11:47:22.775Z,97.70
2024-03-08T11:49:50.141Z,98.10
2024-03-08T11:52:19.876Z,97.90
2024-03-08T11:54:55.630Z,97.90
2024-03-08T11:57:25.948Z,97.30
2024-03-08T11:59:59.840Z,96.90
2024-03-08T12:02:27.138Z,96.90
2024-03-08T12:05:00.946Z,97.70
2024-03-08T12:07:33.349Z,96.60
2024-03-08T12:10:26.012Z,97.80
2024-03-08T12:12:55.096Z,96.70
2024-03-08T12:15:28.777Z,96.60
2024-03-08T12:17:57.524Z,96.60
2024-03-08T12:20:27.880Z,96.50
2024-03-08T12:22:57.979Z,96.30
2024-03-08T12:25:43.981Z,96.90
2024-03-08T12:28:15.063Z,96.70
2024-03-08T12:30:53.003Z,97.40
2024-03-08T12:33:20.083Z,97.50
2024-03-08T12:35:56.002Z,97.70
2024-03-08T12:38:27.562Z,97.50
2024-03-08T12:41:01.434Z,97.70
2024-03-08T12:43:32.601Z,97.90
2024-03-08T12:46:00.430Z,97.90
2024-03-08T12:48:27.813Z,98.10
2024-03-08T12:50:55.983Z,98.40
2024-03-08T12:53:24.721Z,99.10
2024-03-08T12:55:52.070Z,98.70
2024-03-08T12:58:21.364Z,98.60
2024-03-08T13:00:49.918Z,98.70
2024-03-08T13:03:18.654Z,98.10
2024-03-08T13:05:46.826Z,98.10
2024-03-08T13:08:14.418Z,97.90
2024-03-08T13:10:45.187Z,97.70
2024-03-08T13:13:18.545Z,97.90
2024-03-08T13:15:46.314Z,98.30
2024-03-08T13:18:13.749Z,98.10
2024-03-08T13:20:46.828Z,98.30
2024-03-08T13:23:15.593Z,97.80
2024-03-08T13:25:42.985Z,98.00
2024-03-08T13:28:10.208Z,97.70
2024-03-08T13:30:37.708Z,98.60
2024-03-08T13:33:06.440Z,98.00
2024-03-08T13:35:34.048Z,98.30
2024-03-08T13:38:04.350Z,98.30
2024-03-08T13:40:32.230Z,98.10
2024-03-08T13:43:02.236Z,97.50
2024-03-08T13:45:29.648Z,97.90
2024-03-08T13:47:56.964Z,97.40
2024-03-08T13:50:24.591Z,97.60
2024-03-08T13:52:54.327Z,98.00
2024-03-08T13:55:29.143Z,98.20
2024-03-08T13:57:58.711Z,97.00
2024-03-08T14:00:28.838Z,97.40
2024-03-08T14:02:55.847Z,97.70
2024-03-08T14:05:23.153Z,97.40
2024-03-08T14:07:50.946Z,97.40
2024-03-08T14:10:23.754Z,97.60
2024-03-08T14:12:51.927Z,97.70
2024-03-08T14:15:19.251Z,96.80
2024-03-08T14:17:47.907Z,97.00
2024-03-08T14:20:15.398Z,97.70
2024-03-08T14:22:42.523Z,97.20
2024-03-08T14:25:18.952Z,97.20
2024-03-08T14:27:47.580Z,96.90
2024-03-08T14:30:33.042Z,97.50
2024-03-08T14:33:03.769Z,97.40
2024-03-08T14:35:31.097Z,97.70
2024-03-08T14:37:59.386Z,97.60
2024-03-08T14:40:27.181Z,97.40
2024-03-08T14:42:54.707Z,97.00
2024-03-08T14:45:21.770Z,97.50
2024-03-08T14:47:52.673Z,97.90
2024-03-08T14:50:24.810Z,98.10
2024-03-08T14:52:52.846Z,98.00
2024-03-08T14:55:23.549Z,98.40
2024-03-08T14:57:54.635Z,98.50
2024-03-08T15:00:34.465Z,98.60
2024-03-08T15:03:06.491Z,98.80
2024-03-08T15:05:43.178Z,98.30
2024-03-08T15:08:20.632Z,98.40
2024-03-08T15:10:49.263Z,98.50
2024-03-08T15:13:22.969Z,98.60
2024-03-08T15:15:56.574Z,98.60
2024-03-08T15:18:35.676Z,99.70
2024-03-08T15:21:09.266Z,99.70
2024-03-08T15:23:36.914Z,99.50
2024-03-08T15:26:08.252Z,99.40
2024-03-08T15:28:38.406Z,99.60
2024-03-08T15:31:07.476Z,99.90
2024-03-08T15:33:35.780Z,99.50
2024-03-08T15:36:09.258Z,99.90
2024-03-08T15:38:37.956Z,99.80
2024-03-08T15:41:13.848Z,99.90
2024-03-08T15:43:41.842Z,99.70
2024-03-08T15:46:10.220Z,99.90
2024-03-08T15:48:39.286Z,99.90
2024-03-08T15:51:07.381Z,99.90
2024-03-08T15:53:38.814Z,99.90
2024-03-08T15:56:07.073Z,99.90
2024-03-08T15:58:37.272Z,99.90
2024-03-08T16:01:08.724Z,99.90
2024-03-08T16:03:35.823Z,99.90
2024-03-08T16:06:05.456Z,99.90
2024-03-08T16:08:34.218Z,99.90
2024-03-08T16:11:01.247Z,99.90
2024-03-08T16:13:28.954Z,99.90
2024-03-08T16:15:57.656Z,99.90
2024-03-08T16:18:26.243Z,99.90
2024-03-08T16:20:55.550Z,99.90
2024-03-08T16:23:27.186Z,99.90
2024-03-08T16:25:54.580Z,99.90
2024-03-08T16:28:26.997Z,99.90
2024-03-08T16:30:56.819Z,99.90
2024-03-08T16:33:24.850Z,99.90
2024-03-08T16:35:52.857Z,99.90
2024-03-08T16:38:20.368Z,99.90
2024-03-08T16:40:53.604Z,99.90
2024-03-08T16:43:20.961Z,99.90
2024-03-08T16:45:49.381Z,99.90
2024-03-08T16:48:17.381Z,99.90
2024-03-08T16:50:46.500Z,99.90
2024-03-08T16:53:13.752Z,99.90
2024-03-08T16:55:41.374Z,99.90
2024-03-08T16:58:15.415Z,99.90
2024-03-08T17:00:43.356Z,99.90
2024-03-08T17:03:13.485Z,99.90
2024-03-08T17:05:45.926Z,99.90
2024-03-08T17:08:13.181Z,99.90
2024-03-08T17:10:42.150Z,99.90
2024-03-08T17:13:09.478Z,99.90
2024-03-08T17:15:37.179Z,99.90
2024-03-08T17:18:11.525Z,99.90
2024-03-08T17:20:39.783Z,99.90
2024-03-08T17:23:09.879Z,99.90
2024-03-08T17:25:39.241Z,99.90
2024-03-08T17:28:08.262Z,99.90
2024-03-08T17:30:41.650Z,99.90
2024-03-08T17:33:11.004Z,99.90
2024-03-08T17:35:41.741Z,99.90
2024-03-08T17:38:12.281Z,99.90
2024-03-08T17:40:42.762Z,99.90
2024-03-08T17:43:12.421Z,99.90
2024-03-08T17:45:42.276Z,99.90
2024-03-08T17:48:20.129Z,99.90
2024-03-08T17:50:51.455Z,99.90
2024-03-08T17:53:20.015Z,99.90
2024-03-08T17:55:48.659Z,99.90
2024-03-08T17:58:16.499Z,99.90
2024-03-08T18:00:45.037Z,99.90
2024-03-08T18:03:13.823Z,99.90
2024-03-08T18:05:43.186Z,99.90
2024-03-08T18:08:10.844Z,99.90
2024-03-08T18:10:39.229Z,99.90
2024-03-08T18:13:19.375Z,99.90
2024-03-08T18:15:48.322Z,99.90
2024-03-08T18:18:16.977Z,99.90
2024-03-08T18:20:48.646Z,99.90
2024-03-08T18:23:17.825Z,99.90
2024-03-08T18:25:48.388Z,99.90
2024-03-08T18:28:18.294Z,99.90
2024-03-08T18:30:46.053Z,99.90
2024-03-08T18:33:15.773Z,99.90
2024-03-08T18:35:45.244Z,99.90
2024-03-08T18:38:12.882Z,99.90
2024-03-08T18:40:45.500Z,99.90
2024-03-08T18:43:13.797Z,99.90
2024-03-08T18:45:43.263Z,99.90
2024-03-08T18:48:12.777Z,99.90
2024-03-08T18:50:40.509Z,99.90
2024-03-08T18:53:08.368Z,99.90
2024-03-08T18:55:36.253Z,99.90
2024-03-08T18:58:04.073Z,99.90
2024-03-08T19:00:35.955Z,99.90
2024-03-08T19:03:10.645Z,99.90
2024-03-08T19:05:41.835Z,99.90
2024-03-08T19:08:10.281Z,99.90
2024-03-08T19:10:39.100Z,99.90
2024-03-08T19:13:06.979Z,99.90
2024-03-08T19:15:34.897Z,99.90
2024-03-08T19:18:06.140Z,99.90
2024-03-08T19:20:36.750Z,99.90
2024-03-08T19:23:04.669Z,99.90
2024-03-08T19:25:34.467Z,99.90
2024-03-08T19:28:06.017Z,99.90
2024-03-08T19:30:38.045Z,99.90
2024-03-08T19:33:13.139Z,99.90
2024-03-08T19:35:41.572Z,99.90
2024-03-08T19:38:11.880Z,99.90
2024-03-08T19:40:42.597Z,99.90
2024-03-08T19:43:11.673Z,99.90
2024-03-08T19:45:40.779Z,99.90
2024-03-08T19:48:17.663Z,99.90
2024-03-08T19:50:46.636Z,99.90
2024-03-08T19:53:17.475Z,99.90
2024-03-08T19:55:50.539Z,99.90
2024-03-08T19:58:19.957Z,99.90
2024-03-08T20:00:49.261Z,99.90
2024-03-08T20:03:22.689Z,99.90
2024-03-08T20:05:52.710Z,99.90
2024-03-08T20:08:20.384Z,99.90
2024-03-08T20:10:48.610Z,99.90
2024-03-08T20:13:18.206Z,99.90
2024-03-08T20:15:53.898Z,99.90
2024-03-08T20:18:24.729Z,99.90
2024-03-08T20:20:55.186Z,99.90
2024-03-08T20:23:24.418Z,99.90
2024-03-08T20:25:52.044Z,99.90
2024-03-08T20:28:19.233Z,99.90
2024-03-08T20:30:48.034Z,99.90
2024-03-08T20:33:15.320Z,99.90
2024-03-08T20:35:42.573Z,99.90
2024-03-08T20:38:12.145Z,99.90
2024-03-08T20:40:46.304Z,99.90
2024-03-08T20:43:18.757Z,99.90
2024-03-08T20:45:46.012Z,99.90
2024-03-08T20:48:16.104Z,99.90
2024-03-08T20:50:44.810Z,99.90
2024-03-08T20:53:13.497Z,99.90
2024-03-08T20:55:43.392Z,99.90
2024-03-08T20:58:12.588Z,99.90
2024-03-08T21:00:40.056Z,99.90
2024-03-08T21:03:14.804Z,99.90
2024-03-08T21:05:44.053Z,99.90
2024-03-08T21:08:13.678Z,99.90
2024-03-08T21:10:42.420Z,99.90
2024-03-08T21:13:11.229Z,99.90
2024-03-08T21:15:40.478Z,99.90
2024-03-08T21:18:10.066Z,99.90
2024-03-08T21:20:37.502Z,99.90
2024-03-08T21:23:07.680Z,99.90
2024-03-08T21:25:37.329Z,99.90
2024-03-08T21:28:08.235Z,99.90
2024-03-08T21:30:36.215Z,99.90
2024-03-08T21:33:12.166Z,99.90
2024-03-08T21:35:40.285Z,99.90
2024-03-08T21:38:08.712Z,99.90
2024-03-08T21:40:53.502Z,99.90
2024-03-08T21:43:29.013Z,99.90
2024-03-08T21:45:57.542Z,99.90
2024-03-08T21:48:24.611Z,99.90
2024-03-08T21:50:51.767Z,99.90
2024-03-08T21:53:26.516Z,99.90
2024-03-08T21:55:58.514Z,99.90
2024-03-08T21:58:25.912Z,99.90
2024-03-08T22:00:53.731Z,99.90
2024-03-08T22:03:22.468Z,99.90
2024-03-08T22:05:49.520Z,99.90
2024-03-08T22:08:16.501Z,99.90
2024-03-08T22:10:43.766Z,99.90
2024-03-08T22:13:10.757Z,99.90
2024-03-08T22:15:38.938Z,99.90
2024-03-08T22:18:07.742Z,99.90
2024-03-08T22:20:34.945Z,99.90
2024-03-08T22:23:03.577Z,99.90
2024-03-08T22:25:32.245Z,99.90
2024-03-08T22:27:59.880Z,99.90
2024-03-08T22:30:26.952Z,99.90
2024-03-08T22:32:57.767Z,99.90
2024-03-08T22:35:25.948Z,99.90
2024-03-08T22:37:54.496Z,99.90
2024-03-08T22:40:26.315Z,99.90
2024-03-08T22:42:54.647Z,99.90
2024-03-08T22:45:21.996Z,99.90
2024-03-08T22:47:49.577Z,99.90
2024-03-08T22:50:18.934Z,99.90
2024-03-08T22:52:47.522Z,99.90
2024-03-08T22:55:21.290Z,99.90
2024-03-08T22:57:50.221Z,99.90
2024-03-08T23:00:24.073Z,99.90
2024-03-08T23:02:52.190Z,99.90
2024-03-08T23:05:20.415Z,99.90
2024-03-08T23:07:47.678Z,99.90
2024-03-08T23:10:15.590Z,99.90
2024-03-08T23:12:44.810Z,99.90
2024-03-08T23:15:15.856Z,99.90
2024-03-08T23:17:47.086Z,99.90
2024-03-08T23:20:17.309Z,99.90
2024-03-08T23:22:53.076Z,99.90
2024-03-08T23:25:24.633Z,99.90
2024-03-08T23:27:54.431Z,99.90
2024-03-08T23:30:24.013Z,99.90
2024-03-08T23:32:59.214Z,99.90
2024-03-08T23:35:28.480Z,99.90
2024-03-08T23:37:56.091Z,99.90
2024-03-08T23:40:24.509Z,99.90
2024-03-08T23:42:57.921Z,99.90
2024-03-08T23:45:25.492Z,99.90
2024-03-08T23:47:55.600Z,99.90
2024-03-08T23:50:28.422Z,99.90
2024-03-08T23:52:57.219Z,99.90
2024-03-08T23:55:30.830Z,99.90
2024-03-08T23:58:01.468Z,99.90
